KOAK/OAK METAR and TAF weather

Enter ICAO airport designator
Station Type Date Time Source
KOAK METAR 2019/12/13 02:53 UTC NOAA

KOAK 130253Z 00000KT 9SM FEW007 BKN012 BKN140 16/16 A3028 RMK AO2 SLP255 T01560156 53001


Station Type Date Time Source
KOAK Decoded METAR 2019/12/13 02:53 UTC NOAA

METRO OAKLAND INTERNATIONAL AIRPORT , CA, United States (KOAK) 37-43N 122-14W 26M
Dec 12, 2019 - 09:53 PM EST / 2019.12.13 0253 UTC
Wind: Calm:0
Visibility: 9 mile(s):0
Sky conditions: mostly cloudy
Temperature: 60.1 F (15.6 C)
Dew Point: 60.1 F (15.6 C)
Relative Humidity: 100%
Pressure (altimeter): 30.28 in. Hg (1025 hPa)
Pressure tendency: 0.00 inches (0.1 hPa) higher than three hours ago
ob: KOAK 130253Z 00000KT 9SM FEW007 BKN012 BKN140 16/16 A3028 RMK AO2 SLP255 T01560156 53001
cycle: 3

Station Type Date Time Source
KOAK TAF 2019/12/12 22:04 UTC NOAA

TAF
AMD KOAK 122202Z 1222/1324 35007KT 6SM BR VCSH BKN015 OVC025
TEMPO 1222/1224 2SM BR
FM130300 VRB04KT P6SM OVC012
FM130900 VRB03KT 6SM BR OVC009
FM131300 12003KT 4SM BR VCSH OVC005
FM132000 18005KT P6SM BKN015 OVC030

Example: see airport list